Dades meteomassalio
Diari Summary for Diciembre 1, 2017 Units:  Metric    English   Both
« Previous Day
Next Day »
Diari Semanal Mensual Anual Personalitzat
  Maxima: Minima: Mijana:
Temperatura: -17.8 °C -17.2 °C -15.3 °C
Rosada: -17.8 °C -20.6 °C -18.9 °C
Humitat: Humidity % 50 % 63 %
Velocitat del vent: 0 km/h 6 km/h 50.9 km/h
Racha vent: 0 km/h - -
Vent:- - WNW
Pressio: 0 hPa 34361.1 hPa -
Pluja: 12.7 mm    
Historical Graphs
 
 
Tabular Data for Diciembre 1, 2017
Time Temperature Dew Point Pressure Wind Wind Speed Wind Gust Humidity Rainfall Rate (Hourly) solar Conditions
-17.8 °C -17.8 °C 0 hPa Calm     Humidity % 0 mm SolarRadiationWatts/m^2 W/m2 Conditions
00:01 -15.6 °C -18.4 °C 34554.1 hPa WNW 17.9 km/h 17.9 km/h 70 % 0 mm 0.0 W/m2 CLR
00:06 -15.6 °C -18.4 °C 34554.1 hPa NW 12.9 km/h 12.9 km/h 70 % 0 mm 0.0 W/m2 CLR
00:16 -16.2 °C -18.8 °C 34544 hPa NW 11.9 km/h 11.9 km/h 71 % 0 mm 0.0 W/m2 CLR
00:21 -16.6 °C -19.2 °C 34533.8 hPa NNW 6 km/h 6 km/h 71 % 0 mm 0.0 W/m2 CLR
00:26 -16.8 °C -19.3 °C 34533.8 hPa NW 11.9 km/h 11.9 km/h 72 % 0 mm 0.0 W/m2 CLR
00:31 -17.2 °C -19.6 °C 34533.8 hPa NW 20.9 km/h 20.9 km/h 73 % 0 mm 0.0 W/m2 CLR
00:36 -17.2 °C -19.7 °C 34520.3 hPa NW 29.8 km/h 29.8 km/h 72 % 0 mm 0.0 W/m2 CLR
00:41 -16.6 °C -19.3 °C 34520.3 hPa NW 32.8 km/h 32.8 km/h 70 % 0 mm 0.0 W/m2 CLR
00:46 -16.6 °C -19.4 °C 34510.1 hPa NW 35.7 km/h 35.7 km/h 69 % 0 mm 0.0 W/m2 CLR
00:51 -16.2 °C -19.2 °C 34510.1 hPa NW 35.7 km/h 35.7 km/h 68 % 0 mm 0.0 W/m2 CLR
01:01 -15.6 °C -19.1 °C 34510.1 hPa NW 29.8 km/h 29.8 km/h 64 % 0 mm 0.0 W/m2 CLR
01:11 -15.3 °C -18.9 °C 34510.1 hPa NW 32.8 km/h 32.8 km/h 63 % 0 mm 0.0 W/m2 CLR
01:16 -15 °C -18.7 °C 34496.6 hPa NW 28.5 km/h 28.5 km/h 62 % 0 mm 0.0 W/m2 CLR
01:21 -15 °C -18.8 °C 34496.6 hPa NW 29.8 km/h 29.8 km/h 61 % 0 mm 0.0 W/m2 CLR
01:26 -15 °C -18.8 °C 34496.6 hPa NNW 29.8 km/h 29.8 km/h 61 % 0 mm 0.0 W/m2 CLR
01:41 -15 °C -18.9 °C 34496.6 hPa NW 32.8 km/h 32.8 km/h 60 % 0 mm 0.0 W/m2 CLR
01:46 -15 °C -18.9 °C 34496.6 hPa NW 44.7 km/h 44.7 km/h 60 % 0 mm 0.0 W/m2 CLR
01:51 -15 °C -19.1 °C 34496.6 hPa NW 44.7 km/h 44.7 km/h 59 % 0 mm 0.0 W/m2 CLR
01:56 -15 °C -19.1 °C 34496.6 hPa NW 44.7 km/h 44.7 km/h 59 % 0 mm 0.0 W/m2 CLR
02:06 -15 °C -19.1 °C 34496.6 hPa NW 32.8 km/h 32.8 km/h 59 % 0 mm 0.0 W/m2 CLR
02:11 -15 °C -19.1 °C 34496.6 hPa WNW 38.8 km/h 38.8 km/h 59 % 0 mm 0.0 W/m2 CLR
02:21 -15 °C -18.9 °C 34496.6 hPa NNW 41.4 km/h 41.4 km/h 60 % 0 mm 0.0 W/m2 CLR
02:26 -15 °C -18.9 °C 34496.6 hPa NW 44.7 km/h 44.7 km/h 60 % 0 mm 0.0 W/m2 CLR
02:31 -15 °C -18.9 °C 34496.6 hPa NW 35.7 km/h 35.7 km/h 60 % 0 mm 0.0 W/m2 CLR
02:36 -15 °C -18.9 °C 34496.6 hPa NW 35.7 km/h 35.7 km/h 60 % 0 mm 0.0 W/m2 CLR
02:41 -15 °C -18.9 °C 34496.6 hPa NW 35.7 km/h 35.7 km/h 60 % 0 mm 0.0 W/m2 CLR
02:46 -15 °C -18.9 °C 34496.6 hPa NW 26.9 km/h 26.9 km/h 60 % 0 mm 0.0 W/m2 CLR
02:51 -15 °C -18.9 °C 34496.6 hPa NW 25.9 km/h 25.9 km/h 60 % 0 mm 0.0 W/m2 CLR
02:56 -15.3 °C -19.1 °C 34496.6 hPa WNW 36.2 km/h 36.2 km/h 61 % 0 mm 0.0 W/m2 CLR
03:01 -15.3 °C -19.1 °C 34496.6 hPa NW 29.8 km/h 29.8 km/h 61 % 0 mm 0.0 W/m2 CLR
03:06 -15.3 °C -19.1 °C 34496.6 hPa WNW 29.8 km/h 29.8 km/h 61 % 0 mm 0.0 W/m2 CLR
03:11 -15.6 °C -19.4 °C 34496.6 hPa WNW 29.8 km/h 29.8 km/h 61 % 0 mm 0.0 W/m2 CLR
03:16 -15.3 °C -19.3 °C 34486.4 hPa NW 38.8 km/h 38.8 km/h 60 % 0 mm 0.0 W/m2 CLR
03:21 -15.3 °C -19.3 °C 34486.4 hPa NW 35.7 km/h 35.7 km/h 60 % 0 mm 0.0 W/m2 CLR
03:31 -15 °C -18.9 °C 34486.4 hPa NW 38.8 km/h 38.8 km/h 60 % 0 mm 0.0 W/m2 CLR
03:41 -15 °C -18.9 °C 34486.4 hPa WNW 38.8 km/h 38.8 km/h 60 % 0 mm 0.0 W/m2 CLR
03:47 -15 °C -18.9 °C 34486.4 hPa WNW 41.7 km/h 41.7 km/h 60 % 0 mm 0.0 W/m2 CLR
03:52 -15 °C -18.9 °C 34486.4 hPa NW 41.7 km/h 41.7 km/h 60 % 0 mm 0.0 W/m2 CLR
03:57 -15.3 °C -19.3 °C 34476.3 hPa WNW 44.7 km/h 44.7 km/h 60 % 0 mm 0.0 W/m2 CLR
04:02 -15 °C -18.9 °C 34476.3 hPa NW 35.7 km/h 35.7 km/h 60 % 0 mm 0.0 W/m2 CLR
04:07 -15 °C -18.9 °C 34476.3 hPa WNW 38.8 km/h 38.8 km/h 60 % 0 mm 0.0 W/m2 CLR
04:12 -15 °C -18.9 °C 34476.3 hPa WNW 35.7 km/h 35.7 km/h 60 % 0 mm 0.0 W/m2 CLR
04:19 -15 °C -19.1 °C 34476.3 hPa WNW 29.8 km/h 29.8 km/h 59 % 0 mm 0.0 W/m2 CLR
04:22 -15 °C -18.9 °C 34462.7 hPa NW 26.9 km/h 26.9 km/h 60 % 0 mm 0.0 W/m2 CLR
04:24 -15.3 °C -19.3 °C 34462.7 hPa West 29.8 km/h 29.8 km/h 60 % 0 mm 0.0 W/m2 CLR
04:25 -15.3 °C -19.3 °C 34462.7 hPa WNW 29.8 km/h 29.8 km/h 60 % 0 mm 0.0 W/m2 CLR
04:32 -15.3 °C -19.3 °C 34462.7 hPa WNW 23.8 km/h 23.8 km/h 60 % 0 mm 0.0 W/m2 CLR
04:35 -15.3 °C -19.3 °C 34462.7 hPa WNW 26.9 km/h 26.9 km/h 60 % 0 mm 0.0 W/m2 CLR
04:40 -15.6 °C -19.6 °C 34462.7 hPa NW 35.7 km/h 35.7 km/h 60 % 0 mm 0.0 W/m2 CLR
04:45 -15.6 °C -19.6 °C 34452.6 hPa WNW 41.7 km/h 41.7 km/h 60 % 0 mm 0.0 W/m2 CLR
04:50 -15.6 °C -19.6 °C 34452.6 hPa WNW 29.8 km/h 29.8 km/h 60 % 0 mm 0.0 W/m2 CLR
04:55 -15.6 °C -19.4 °C 34452.6 hPa WNW 20.9 km/h 20.9 km/h 61 % 0 mm 0.0 W/m2 CLR
05:00 -15.6 °C -19.3 °C 34452.6 hPa West 17.9 km/h 17.9 km/h 62 % 0 mm 0.0 W/m2 CLR
05:05 -15.9 °C -19.5 °C 34452.6 hPa NW 23.8 km/h 23.8 km/h 63 % 0 mm 0.0 W/m2 CLR
05:10 -15.9 °C -19.5 °C 34442.4 hPa WNW 29.8 km/h 29.8 km/h 63 % 0 mm 0.0 W/m2 CLR
05:15 -15.9 °C -19.7 °C 34442.4 hPa NW 31.1 km/h 31.1 km/h 61 % 0 mm 0.0 W/m2 CLR
05:20 -15.6 °C -19.6 °C 34442.4 hPa NW 33.6 km/h 33.6 km/h 60 % 0 mm 0.0 W/m2 CLR
05:25 -15.3 °C -19.3 °C 34442.4 hPa NW 50.7 km/h 50.7 km/h 60 % 0 mm 0.0 W/m2 CLR
05:30 -15.3 °C -19.4 °C 34442.4 hPa WNW 35.7 km/h 35.7 km/h 59 % 0 mm 0.0 W/m2 CLR
05:35 -15 °C -19.1 °C 34428.8 hPa NW 32.8 km/h 32.8 km/h 59 % 0 mm 0.0 W/m2 CLR
05:36 -15 °C -19.1 °C 34442.4 hPa NW 44.1 km/h 44.1 km/h 59 % 0 mm 0.0 W/m2 CLR
05:41 -15 °C -19.2 °C 34428.8 hPa NW 50.7 km/h 50.7 km/h 58 % 0 mm 0.0 W/m2 CLR
05:46 -14.7 °C -18.9 °C 34428.8 hPa NW 38.8 km/h 38.8 km/h 58 % 0 mm 0.0 W/m2 CLR
05:51 -14.7 °C -19.1 °C 34428.8 hPa WNW 49.2 km/h 49.2 km/h 57 % 0 mm 0.0 W/m2 CLR
05:56 -14.7 °C -19.1 °C 34428.8 hPa WNW 35.7 km/h 35.7 km/h 57 % 0 mm 0.0 W/m2 CLR
06:01 -14.7 °C -19.1 °C 34442.4 hPa WNW 38.8 km/h 38.8 km/h 57 % 0 mm 0.0 W/m2 CLR
06:06 -14.7 °C -19.1 °C 34428.8 hPa WNW 38.8 km/h 38.8 km/h 57 % 0 mm 0.0 W/m2 CLR
06:11 -14.7 °C -18.9 °C 34428.8 hPa NW 32.8 km/h 32.8 km/h 58 % 0 mm 0.0 W/m2 CLR
06:21 -15 °C -19.2 °C 34428.8 hPa WNW 29.8 km/h 29.8 km/h 58 % 0 mm 0.0 W/m2 CLR
06:26 -15.3 °C -19.5 °C 34428.8 hPa WNW 20.9 km/h 20.9 km/h 58 % 0 mm 0.0 W/m2 CLR
06:31 -15.3 °C -19.5 °C 34428.8 hPa WNW 23.8 km/h 23.8 km/h 58 % 0 mm 0.0 W/m2 CLR
06:36 -15.3 °C -19.4 °C 34428.8 hPa West 32.8 km/h 32.8 km/h 59 % 0 mm 0.0 W/m2 CLR
06:41 -15.3 °C -19.4 °C 34428.8 hPa WNW 29.8 km/h 29.8 km/h 59 % 0 mm 0.0 W/m2 CLR
06:51 -15.6 °C -19.6 °C 34418.7 hPa WNW 23.3 km/h 23.3 km/h 60 % 0 mm 0.0 W/m2 CLR
06:56 -15.6 °C -19.6 °C 34418.7 hPa WNW 23.8 km/h 23.8 km/h 60 % 0 mm 0.0 W/m2 CLR
07:01 -15.6 °C -19.6 °C 34418.7 hPa NW 29.8 km/h 29.8 km/h 60 % 0 mm 0.0 W/m2 CLR
07:06 -15.3 °C -19.4 °C 34405.1 hPa WNW 38.8 km/h 38.8 km/h 59 % 0 mm 0.0 W/m2 CLR
07:11 -15.3 °C -19.4 °C 34418.7 hPa NW 35.7 km/h 35.7 km/h 59 % 0 mm 0.0 W/m2 CLR
07:16 -15 °C -19.1 °C 34405.1 hPa WNW 35.7 km/h 35.7 km/h 59 % 0 mm 0.0 W/m2 CLR
07:21 -15 °C -19.1 °C 34405.1 hPa NW 41.7 km/h 41.7 km/h 59 % 0 mm 0.0 W/m2 CLR
07:26 -15 °C -18.9 °C 34405.1 hPa NW 32.8 km/h 32.8 km/h 60 % 0 mm 0.0 W/m2 CLR
07:31 -15 °C -18.9 °C 34395 hPa NW 28.5 km/h 28.5 km/h 60 % 0 mm 0.0 W/m2 CLR
07:36 -15 °C -18.9 °C 34395 hPa NW 26.9 km/h 26.9 km/h 60 % 0 mm 0.0 W/m2 CLR
07:41 -15 °C -18.9 °C 34395 hPa NW 29.8 km/h 29.8 km/h 60 % 0 mm 0.0 W/m2 CLR
07:46 -15 °C -18.9 °C 34395 hPa WNW 20.9 km/h 20.9 km/h 60 % 0 mm 0.0 W/m2 CLR
07:51 -15.3 °C -19.3 °C 34395 hPa NW 26.9 km/h 26.9 km/h 60 % 0 mm 0.0 W/m2 CLR
07:56 -15.3 °C -19.1 °C 34395 hPa North 26.9 km/h 26.9 km/h 61 % 0 mm 0.0 W/m2 CLR
08:01 -15.3 °C -19.1 °C 34395 hPa WNW 33.6 km/h 33.6 km/h 61 % 0 mm 0.0 W/m2 OVC
08:06 -15.3 °C -19.3 °C 34395 hPa NW 29.8 km/h 29.8 km/h 60 % 0 mm 7.0 W/m2 OVC
08:11 -15 °C -18.9 °C 34395 hPa NW 33.6 km/h 33.6 km/h 60 % 0 mm 9.0 W/m2 BKN
08:16 -14.7 °C -18.7 °C 34395 hPa NW 38.8 km/h 38.8 km/h 60 % 0 mm 12.0 W/m2 BKN
08:21 -14.7 °C -18.8 °C 34384.8 hPa WNW 32.8 km/h 32.8 km/h 59 % 0 mm 12.0 W/m2 BKN
08:26 -14.7 °C -18.7 °C 34384.8 hPa WNW 33.6 km/h 33.6 km/h 60 % 0 mm 12.0 W/m2 BKN
08:31 -14.7 °C -18.7 °C 34384.8 hPa NW 32.8 km/h 32.8 km/h 60 % 0 mm 14.0 W/m2 BKN
08:36 -14.7 °C -18.7 °C 34384.8 hPa NW 36.2 km/h 36.2 km/h 60 % 0 mm 21.0 W/m2 BKN
08:41 -14.7 °C -18.7 °C 34384.8 hPa NW 36.2 km/h 36.2 km/h 60 % 0 mm 30.0 W/m2 BKN
08:46 -14.7 °C -18.7 °C 34384.8 hPa WNW 38.8 km/h 38.8 km/h 60 % 0 mm 35.0 W/m2 BKN
08:51 -14.7 °C -18.7 °C 34384.8 hPa NW 35.7 km/h 35.7 km/h 60 % 0 mm 51.0 W/m2 SCT
08:56 -14.7 °C -18.8 °C 34371.3 hPa WNW 47.6 km/h 47.6 km/h 59 % 0 mm 65.0 W/m2 SCT
09:01 -14.7 °C -18.8 °C 34371.3 hPa NW 53.6 km/h 53.6 km/h 59 % 0 mm 70.0 W/m2 FEW
09:06 -14.4 °C -18.7 °C 34371.3 hPa WNW 50.7 km/h 50.7 km/h 58 % 0 mm 104.0 W/m2 FEW
09:11 -14.4 °C -18.7 °C 34371.3 hPa WNW 35.7 km/h 35.7 km/h 58 % 0 mm 134.0 W/m2 FEW
09:16 -14.1 °C -18.3 °C 34371.3 hPa NW 44.7 km/h 44.7 km/h 58 % 0 mm 70.0 W/m2 CLR
09:21 -14.1 °C -18.5 °C 34361.1 hPa WNW 49.2 km/h 49.2 km/h 57 % 0 mm 54.0 W/m2 FEW
09:23 -14.1 °C -18.5 °C 34361.1 hPa NNW 47.6 km/h 47.6 km/h 57 % 0 mm 54.0 W/m2 FEW
09:33 -14.1 °C -18.3 °C 34361.1 hPa NW 65.5 km/h 65.5 km/h 58 % 0 mm 47.0 W/m2 BKN
09:38 -14.1 °C -18.5 °C 34361.1 hPa WNW 54.4 km/h 54.4 km/h 57 % 0 mm 62.0 W/m2 SCT
09:43 -14.1 °C -18.5 °C 34361.1 hPa NNW 49.2 km/h 49.2 km/h 57 % 0 mm 158.0 W/m2 FEW
09:48 -13.8 °C -18.3 °C 34361.1 hPa NW 53.6 km/h 53.6 km/h 56 % 0 mm 98.0 W/m2 CLR
09:53 -13.8 °C -18.4 °C 34361.1 hPa NW 47.6 km/h 47.6 km/h 55 % 0 mm 63.0 W/m2 CLR
09:58 -13.8 °C -18.4 °C 34361.1 hPa WNW 53.6 km/h 53.6 km/h 55 % 0 mm 91.0 W/m2 FEW
10:03 -13.4 °C -18.2 °C 34361.1 hPa NW 56.6 km/h 56.6 km/h 55 % 0 mm 272.0 W/m2 CLR
10:13 -13.2 °C -18 °C 34371.3 hPa WNW 50.7 km/h 50.7 km/h 54 % 0 mm 183.0 W/m2 CLR
10:18 -12.8 °C -17.9 °C 34371.3 hPa WNW 50.7 km/h 50.7 km/h 53 % 0 mm 258.0 W/m2 CLR
10:23 -12.8 °C -17.7 °C 34384.8 hPa NNW 53.6 km/h 53.6 km/h 54 % 0 mm 462.0 W/m2 CLR
10:28 -12.8 °C -17.9 °C 34384.8 hPa NNW 50.7 km/h 50.7 km/h 53 % 0 mm 160.0 W/m2 CLR
10:33 -12.8 °C -17.7 °C 34384.8 hPa North 51.8 km/h 51.8 km/h 54 % 0 mm 111.0 W/m2 CLR
10:38 -13.2 °C -17.9 °C 34384.8 hPa NW 44.7 km/h 44.7 km/h 55 % 0 mm 93.0 W/m2 CLR
10:43 -13.2 °C -17.7 °C 34384.8 hPa NNW 41.7 km/h 41.7 km/h 56 % 0 mm 95.0 W/m2 CLR
10:58 -13.2 °C -17.9 °C 34384.8 hPa NW 50.7 km/h 50.7 km/h 55 % 0 mm 132.0 W/m2 CLR
11:03 -13.2 °C -17.7 °C 34384.8 hPa North 53.6 km/h 53.6 km/h 56 % 0 mm 125.0 W/m2 CLR
11:08 -13.2 °C -17.6 °C 34395 hPa NNW 65.5 km/h 65.5 km/h 57 % 0 mm 84.0 W/m2 CLR
11:13 -13.4 °C -17.4 °C 34395 hPa NNW 89.3 km/h 89.3 km/h 61 % 0 mm 107.0 W/m2 CLR
11:18 -13.8 °C -17.3 °C 34395 hPa North 74.5 km/h 74.5 km/h 64 % 0 mm 81.0 W/m2 CLR
11:20 -13.8 °C -17.2 °C 34395 hPa North 74.5 km/h 74.5 km/h 65 % 0 mm 74.0 W/m2 CLR
11:25 -14.1 °C -16.9 °C 34395 hPa North 64.7 km/h 64.7 km/h 70 % 0 mm 63.0 W/m2 FEW
11:30 -14.4 °C -16.7 °C 34395 hPa North 86.4 km/h 86.4 km/h 75 % 0 mm 88.0 W/m2 FEW
11:35 -14.7 °C -16.6 °C 34405.1 hPa North 56.6 km/h 56.6 km/h 79 % 0 mm 81.0 W/m2 FEW
11:40 -14.7 °C -16.3 °C 34405.1 hPa North 56.6 km/h 56.6 km/h 81 % 7.62 mm 111.0 W/m2 RA
11:45 -15 °C -16.5 °C 34395 hPa NW 59.5 km/h 59.5 km/h 83 % 7.62 mm 91.0 W/m2 CLR
11:50 -15 °C -16.4 °C 34395 hPa NNW 89.3 km/h 89.3 km/h 84 % 7.62 mm 156.0 W/m2 CLR
11:55 -15 °C -16.3 °C 34395 hPa North 62.1 km/h 62.1 km/h 85 % 7.62 mm 241.0 W/m2 CLR
12:00 -15 °C -16.2 °C 34384.8 hPa NNW 62.6 km/h 62.6 km/h 86 % 7.62 mm 311.0 W/m2 CLR
12:05 -14.7 °C -15.9 °C 34384.8 hPa NW 62.6 km/h 62.6 km/h 86 % 7.62 mm 250.0 W/m2 CLR
12:10 -14.7 °C -16 °C 34395 hPa NW 50.7 km/h 50.7 km/h 85 % 7.62 mm 84.0 W/m2 CLR
12:15 -15 °C -16.4 °C 34395 hPa NNW 59.5 km/h 59.5 km/h 84 % 7.62 mm 49.0 W/m2 FEW
12:20 -15 °C -16.4 °C 34405.1 hPa North 74.5 km/h 74.5 km/h 84 % 7.62 mm 67.0 W/m2 SCT
12:25 -15 °C -16.5 °C 34405.1 hPa NNW 80.5 km/h 80.5 km/h 83 % 7.62 mm 125.0 W/m2 FEW
12:30 -15 °C -16.5 °C 34405.1 hPa North 67.3 km/h 67.3 km/h 83 % 7.62 mm 97.0 W/m2 CLR
12:35 -15.3 °C -16.9 °C 34405.1 hPa NNW 68.6 km/h 68.6 km/h 82 % 7.62 mm 98.0 W/m2 CLR
12:40 -15.3 °C -17 °C 34418.7 hPa NNW 74.5 km/h 74.5 km/h 81 % 0 mm 128.0 W/m2 CLR
12:45 -15 °C -16.7 °C 34418.7 hPa NNW 57 km/h 57 km/h 81 % 0 mm 76.0 W/m2 CLR
12:50 -15 °C -16.8 °C 34418.7 hPa NNW 62.6 km/h 62.6 km/h 80 % 0 mm 120.0 W/m2 CLR
12:55 -15 °C -16.7 °C 34405.1 hPa NNW 59.5 km/h 59.5 km/h 81 % 0 mm 174.0 W/m2 CLR
13:01 -15 °C -16.8 °C 34405.1 hPa North 50.7 km/h 50.7 km/h 80 % 0 mm 229.0 W/m2 CLR
13:06 -14.7 °C -16.7 °C 34405.1 hPa North 59.5 km/h 59.5 km/h 78 % 0 mm 279.0 W/m2 CLR
13:16 -14.7 °C -17.1 °C 34395 hPa NW 47.6 km/h 47.6 km/h 74 % 0 mm 229.0 W/m2 CLR
13:21 -14.4 °C -16.9 °C 34395 hPa NNW 44.7 km/h 44.7 km/h 73 % 0 mm 299.0 W/m2 CLR
13:26 -14.4 °C -17 °C 34395 hPa NW 44.7 km/h 44.7 km/h 72 % 0 mm 364.0 W/m2 CLR
13:31 -14.4 °C -17.3 °C 34395 hPa North 80.3 km/h 80.3 km/h 69 % 0 mm 213.0 W/m2 CLR
13:36 -14.7 °C -17.6 °C 34395 hPa NNW 50.7 km/h 50.7 km/h 69 % 0 mm 204.0 W/m2 CLR
13:41 -14.7 °C -17.7 °C 34395 hPa NNW 56.6 km/h 56.6 km/h 68 % 0 mm 244.0 W/m2 CLR
13:46 -14.7 °C -17.8 °C 34395 hPa NW 74.5 km/h 74.5 km/h 67 % 0 mm 197.0 W/m2 CLR
13:51 -14.7 °C -17.7 °C 34395 hPa NW 62.6 km/h 62.6 km/h 68 % 0 mm 181.0 W/m2 CLR
13:56 -15 °C -17.9 °C 34395 hPa NW 44.7 km/h 44.7 km/h 69 % 0 mm 174.0 W/m2 CLR
14:01 -15 °C -17.9 °C 34405.1 hPa North 71.5 km/h 71.5 km/h 69 % 0 mm 209.0 W/m2 CLR
14:06 -15 °C -17.8 °C 34405.1 hPa North 56.6 km/h 56.6 km/h 70 % 0 mm 151.0 W/m2 CLR
14:11 -15 °C -17.9 °C 34405.1 hPa North 56.6 km/h 56.6 km/h 69 % 0 mm 162.0 W/m2 CLR
14:21 -15 °C -18 °C 34405.1 hPa NW 80.5 km/h 80.5 km/h 68 % 0 mm 163.0 W/m2 CLR
14:26 -15 °C -18.1 °C 34395 hPa NW 65.5 km/h 65.5 km/h 67 % 0 mm 160.0 W/m2 CLR
14:31 -15 °C -18.1 °C 34395 hPa NNW 68.6 km/h 68.6 km/h 67 % 0 mm 98.0 W/m2 CLR
14:41 -15 °C -18.5 °C 34395 hPa NW 65.5 km/h 65.5 km/h 64 % 0 mm 369.0 W/m2 CLR
14:46 -14.7 °C -18.4 °C 34405.1 hPa NNW 65.5 km/h 65.5 km/h 62 % 0 mm 371.0 W/m2 CLR
14:51 -14.7 °C -18.6 °C 34405.1 hPa NW 53.6 km/h 53.6 km/h 61 % 0 mm 387.0 W/m2 CLR
15:01 -14.4 °C -18.7 °C 34405.1 hPa NNW 53.6 km/h 53.6 km/h 58 % 0 mm 359.0 W/m2 CLR
15:06 -14.4 °C -18.9 °C 34405.1 hPa NNW 67.3 km/h 67.3 km/h 56 % 0 mm 318.0 W/m2 CLR
15:11 -14.7 °C -19.2 °C 34405.1 hPa NNW 71.5 km/h 71.5 km/h 56 % 0 mm 306.0 W/m2 CLR
15:16 -14.4 °C -19.2 °C 34395 hPa North 72.6 km/h 72.6 km/h 54 % 0 mm 295.0 W/m2 CLR
15:21 -14.4 °C -19.3 °C 34405.1 hPa NNW 89.3 km/h 89.3 km/h 53 % 0 mm 281.0 W/m2 CLR
15:31 -14.4 °C -19.6 °C 34418.7 hPa NNW 86.4 km/h 86.4 km/h 51 % 7.62 mm 258.0 W/m2 RA
15:36 -14.4 °C -19.4 °C 34405.1 hPa North 89.3 km/h 89.3 km/h 52 % 7.62 mm 243.0 W/m2 CLR
15:41 -14.4 °C -19.3 °C 34405.1 hPa NNW 68.6 km/h 68.6 km/h 53 % 7.62 mm 234.0 W/m2 CLR
15:46 -14.4 °C -19.3 °C 34418.7 hPa North 80.5 km/h 80.5 km/h 53 % 7.62 mm 218.0 W/m2 CLR
15:51 -14.7 °C -19.5 °C 34418.7 hPa North 80.5 km/h 80.5 km/h 54 % 7.62 mm 207.0 W/m2 CLR
16:01 -14.7 °C -19.5 °C 34418.7 hPa NNW 89.3 km/h 89.3 km/h 54 % 7.62 mm 178.0 W/m2 CLR
16:06 -14.7 °C -19.5 °C 34418.7 hPa NW 80.5 km/h 80.5 km/h 54 % 7.62 mm 163.0 W/m2 CLR
16:11 -14.7 °C -19.5 °C 34418.7 hPa NNW 83.4 km/h 83.4 km/h 54 % 7.62 mm 148.0 W/m2 CLR
16:16 -14.7 °C -19.5 °C 34418.7 hPa North 68.6 km/h 68.6 km/h 54 % 7.62 mm 135.0 W/m2 CLR
16:21 -14.7 °C -19.5 °C 34428.8 hPa NW 56.6 km/h 56.6 km/h 54 % 7.62 mm 121.0 W/m2 CLR
16:31 -15 °C -19.9 °C 34428.8 hPa North 68.6 km/h 68.6 km/h 53 % 0 mm 90.0 W/m2 CLR
16:36 -15 °C -19.9 °C 34428.8 hPa NNW 64.7 km/h 64.7 km/h 53 % 0 mm 77.0 W/m2 FEW
16:41 -15 °C -19.9 °C 34428.8 hPa NNW 68.6 km/h 68.6 km/h 53 % 0 mm 62.0 W/m2 BKN
16:51 -15 °C -20.2 °C 34442.4 hPa North 68.6 km/h 68.6 km/h 51 % 0 mm 46.0 W/m2 SCT
16:56 -15 °C -20.3 °C 34442.4 hPa North 77.7 km/h 77.7 km/h 50 % 0 mm 35.0 W/m2 BKN
17:01 -15 °C -20.3 °C 34442.4 hPa North 80.3 km/h 80.3 km/h 50 % 0 mm 25.0 W/m2 BKN
17:06 -15.3 °C -20.6 °C 34442.4 hPa North 62.6 km/h 62.6 km/h 50 % 0 mm 16.0 W/m2 BKN
17:11 -15.3 °C -20.4 °C 34442.4 hPa North 65.5 km/h 65.5 km/h 51 % 0 mm 12.0 W/m2 BKN
17:16 -15.3 °C -20.3 °C 34452.6 hPa NNW 54.4 km/h 54.4 km/h 52 % 0 mm 12.0 W/m2 BKN
17:21 -15.3 °C -20.2 °C 34442.4 hPa NNW 72.6 km/h 72.6 km/h 53 % 0 mm 9.0 W/m2 BKN
17:31 -15.3 °C -20.1 °C 34452.6 hPa North 62.6 km/h 62.6 km/h 54 % 0 mm 5.0 W/m2 OVC
17:36 -15.6 °C -20.3 °C 34452.6 hPa NNW 74.5 km/h 74.5 km/h 54 % 0 mm 0.0 W/m2 OVC
17:46 -15.6 °C -20.3 °C 34452.6 hPa NNW 62.1 km/h 62.1 km/h 54 % 0 mm 0.0 W/m2 CLR
17:51 -15.6 °C -20.2 °C 34462.7 hPa North 65.5 km/h 65.5 km/h 55 % 0 mm 0.0 W/m2 CLR
17:56 -15.6 °C -20.2 °C 34462.7 hPa North 65.5 km/h 65.5 km/h 55 % 0 mm 0.0 W/m2 CLR
18:01 -15.6 °C -20.1 °C 34462.7 hPa North 77.4 km/h 77.4 km/h 56 % 0 mm 0.0 W/m2 CLR
18:06 -15.9 °C -20.3 °C 34462.7 hPa North 77.4 km/h 77.4 km/h 56 % 0 mm 0.0 W/m2
18:11 -15.9 °C -20.2 °C 34476.3 hPa North 86.4 km/h 86.4 km/h 57 % 0 mm 0.0 W/m2 CLR
18:16 -15.9 °C -20.2 °C 34476.3 hPa North 77.4 km/h 77.4 km/h 57 % 0 mm 0.0 W/m2 CLR
18:17 -15.9 °C -20.2 °C 34476.3 hPa North 71.5 km/h 71.5 km/h 57 % 0 mm 0.0 W/m2 CLR
18:22 -15.9 °C -20.2 °C 34486.4 hPa NNW 80.5 km/h 80.5 km/h 57 % 0 mm 0.0 W/m2 CLR
18:27 -15.9 °C -20.1 °C 34486.4 hPa NNW 74.5 km/h 74.5 km/h 58 % 0 mm 0.0 W/m2 CLR
18:32 -15.9 °C -20.1 °C 34496.6 hPa North 68.6 km/h 68.6 km/h 58 % 0 mm 0.0 W/m2 CLR
18:37 -15.9 °C -19.9 °C 34496.6 hPa NNW 83.4 km/h 83.4 km/h 59 % 0 mm 0.0 W/m2 CLR
18:42 -15.9 °C -19.9 °C 34510.1 hPa NNW 68.6 km/h 68.6 km/h 59 % 0 mm 0.0 W/m2 CLR
18:47 -16.2 °C -20.1 °C 34510.1 hPa North 89.3 km/h 89.3 km/h 60 % 0 mm 0.0 W/m2 CLR
18:52 -16.2 °C -20.1 °C 34510.1 hPa North 68.6 km/h 68.6 km/h 60 % 0 mm 0.0 W/m2 CLR
18:57 -16.2 °C -20 °C 34520.3 hPa NNW 68.6 km/h 68.6 km/h 61 % 0 mm 0.0 W/m2 CLR
19:02 -16.2 °C -19.9 °C 34520.3 hPa NNW 57 km/h 57 km/h 62 % 0 mm 0.0 W/m2 CLR
19:07 -16.2 °C -19.9 °C 34520.3 hPa NNW 65.5 km/h 65.5 km/h 62 % 0 mm 0.0 W/m2 CLR
19:12 -16.2 °C -19.9 °C 34520.3 hPa NNW 71.5 km/h 71.5 km/h 62 % 0 mm 0.0 W/m2 CLR
19:17 -16.2 °C -19.8 °C 34533.8 hPa North 68.6 km/h 68.6 km/h 63 % 0 mm 0.0 W/m2 CLR
19:22 -16.2 °C -19.8 °C 34533.8 hPa NNW 65.5 km/h 65.5 km/h 63 % 0 mm 0.0 W/m2 CLR
19:27 -16.6 °C -20.1 °C 34533.8 hPa NNW 44.7 km/h 44.7 km/h 63 % 0 mm 0.0 W/m2 CLR
19:32 -16.6 °C -19.9 °C 34544 hPa North 46.7 km/h 46.7 km/h 64 % 0 mm 0.0 W/m2 CLR
19:37 -16.6 °C -19.9 °C 34544 hPa North 50.7 km/h 50.7 km/h 64 % 0 mm 0.0 W/m2 CLR
19:38 -16.6 °C -19.9 °C 34544 hPa NNW 54.4 km/h 54.4 km/h 64 % 0 mm 0.0 W/m2 CLR
19:48 -16.6 °C -19.8 °C 34554.1 hPa NNW 59.5 km/h 59.5 km/h 65 % 0 mm 0.0 W/m2 CLR
19:53 -16.6 °C -19.8 °C 34554.1 hPa NNE 53.6 km/h 53.6 km/h 65 % 0 mm 0.0 W/m2 CLR
19:58 -16.6 °C -19.7 °C 34554.1 hPa NNW 53.6 km/h 53.6 km/h 66 % 0 mm 0.0 W/m2 CLR
20:03 -16.6 °C -19.7 °C 34567.7 hPa NNW 41.7 km/h 41.7 km/h 66 % 0 mm 0.0 W/m2 CLR
20:08 -16.6 °C -19.5 °C 34567.7 hPa North 59.5 km/h 59.5 km/h 68 % 0 mm 0.0 W/m2 CLR
20:13 -16.6 °C -19.4 °C 34567.7 hPa NNW 53.6 km/h 53.6 km/h 69 % 0 mm 0.0 W/m2 CLR
20:18 -16.6 °C -19.4 °C 34567.7 hPa North 50.7 km/h 50.7 km/h 69 % 0 mm 0.0 W/m2 CLR
20:28 -16.8 °C -19.6 °C 34567.7 hPa NNW 51.8 km/h 51.8 km/h 70 % 0 mm 0.0 W/m2 CLR
20:38 -16.8 °C -19.5 °C 34577.8 hPa North 62.6 km/h 62.6 km/h 71 % 0 mm 0.0 W/m2 CLR
20:43 -16.8 °C -19.5 °C 34567.7 hPa North 62.6 km/h 62.6 km/h 71 % 0 mm 0.0 W/m2 CLR
20:48 -16.8 °C -19.5 °C 34577.8 hPa NNW 71.5 km/h 71.5 km/h 71 % 0 mm 0.0 W/m2 CLR
20:54 -16.8 °C -19.5 °C 34567.7 hPa NNW 74.5 km/h 74.5 km/h 71 % 0 mm 0.0 W/m2 CLR
20:59 -16.8 °C -19.6 °C 34567.7 hPa NNW 59.5 km/h 59.5 km/h 70 % 0 mm 0.0 W/m2 CLR
21:04 -16.6 °C -19.3 °C 34577.8 hPa NNW 68.6 km/h 68.6 km/h 70 % 0 mm 0.0 W/m2 CLR
21:09 -16.6 °C -19.3 °C 34577.8 hPa North 56.6 km/h 56.6 km/h 70 % 0 mm 0.0 W/m2 CLR
21:19 -16.6 °C -19.4 °C 34577.8 hPa North 56.6 km/h 56.6 km/h 69 % 0 mm 0.0 W/m2 CLR
21:24 -16.6 °C -19.4 °C 34577.8 hPa North 68.6 km/h 68.6 km/h 69 % 0 mm 0.0 W/m2 CLR
21:29 -16.8 °C -19.7 °C 34577.8 hPa North 68.6 km/h 68.6 km/h 69 % 0 mm 0.0 W/m2 CLR
21:34 -16.6 °C -19.4 °C 34591.4 hPa North 57 km/h 57 km/h 69 % 0 mm 0.0 W/m2 CLR
21:39 -16.6 °C -19.3 °C 34591.4 hPa North 62.6 km/h 62.6 km/h 70 % 0 mm 0.0 W/m2 CLR
21:49 -16.6 °C -19.3 °C 34591.4 hPa North 50.7 km/h 50.7 km/h 70 % 0 mm 0.0 W/m2 CLR
21:54 -16.6 °C -19.3 °C 34591.4 hPa North 56.6 km/h 56.6 km/h 70 % 0 mm 0.0 W/m2 CLR
21:59 -16.8 °C -19.6 °C 34591.4 hPa NNW 44.7 km/h 44.7 km/h 70 % 0 mm 0.0 W/m2 CLR
22:04 -16.8 °C -19.6 °C 34591.4 hPa NNW 44.1 km/h 44.1 km/h 70 % 0 mm 0.0 W/m2 CLR
22:09 -16.8 °C -19.6 °C 34591.4 hPa NNW 62.1 km/h 62.1 km/h 70 % 0 mm 0.0 W/m2 CLR
22:14 -16.8 °C -19.6 °C 34591.4 hPa NNW 62.6 km/h 62.6 km/h 70 % 0 mm 0.0 W/m2 CLR
22:19 -16.8 °C -19.6 °C 34591.4 hPa NNW 68.6 km/h 68.6 km/h 70 % 0 mm 0.0 W/m2 CLR
22:24 -16.8 °C -19.6 °C 34591.4 hPa NNW 57 km/h 57 km/h 70 % 0 mm 0.0 W/m2 CLR
22:29 -16.6 °C -19.2 °C 34591.4 hPa NNW 62.6 km/h 62.6 km/h 71 % 0 mm 0.0 W/m2 CLR
22:34 -16.8 °C -19.5 °C 34591.4 hPa NNW 47.6 km/h 47.6 km/h 71 % 0 mm 0.0 W/m2 CLR
22:39 -16.8 °C -19.5 °C 34591.4 hPa NNW 47.6 km/h 47.6 km/h 71 % 0 mm 0.0 W/m2 CLR
22:44 -16.8 °C -19.5 °C 34591.4 hPa NNW 50.7 km/h 50.7 km/h 71 % 0 mm 0.0 W/m2 CLR
22:49 -16.8 °C -19.5 °C 34591.4 hPa NW 53.6 km/h 53.6 km/h 71 % 0 mm 0.0 W/m2 CLR
23:01 -16.8 °C -19.3 °C 34591.4 hPa NNE 47.6 km/h 47.6 km/h 72 % 0 mm 0.0 W/m2 CLR
23:06 -16.8 °C -19.3 °C 34591.4 hPa North 59.5 km/h 59.5 km/h 72 % 0 mm 0.0 W/m2 CLR
23:11 -16.8 °C -19.3 °C 34591.4 hPa NNW 50.7 km/h 50.7 km/h 72 % 0 mm 0.0 W/m2 CLR
23:16 -16.8 °C -19.3 °C 34591.4 hPa NNW 50.7 km/h 50.7 km/h 72 % 0 mm 0.0 W/m2 CLR
23:26 -16.8 °C -19.3 °C 34591.4 hPa NNW 47.6 km/h 47.6 km/h 72 % 0 mm 0.0 W/m2 CLR
23:32 -16.8 °C -19.3 °C 34591.4 hPa NW 64.7 km/h 64.7 km/h 72 % 0 mm 0.0 W/m2 CLR
23:37 -16.8 °C -19.3 °C 34591.4 hPa North 50.7 km/h 50.7 km/h 72 % 0 mm 0.0 W/m2 CLR
23:42 -16.8 °C -19.3 °C 34591.4 hPa NNW 50.7 km/h 50.7 km/h 72 % 0 mm 0.0 W/m2 CLR
23:47 -16.8 °C -19.3 °C 34591.4 hPa NNW 62.6 km/h 62.6 km/h 72 % 0 mm 0.0 W/m2 CLR
Lo Temps de Massalio
Compliments of Weather Underground - 1 mb